createdAt,value
2022-10-01T00:02:15.867Z,8.93
2022-10-01T00:04:44.392Z,8.97
2022-10-01T00:07:15.513Z,8.83
2022-10-01T00:09:45.112Z,8.77
2022-10-01T00:12:15.994Z,8.92
2022-10-01T00:14:45.889Z,8.92
2022-10-01T00:17:17.075Z,8.83
2022-10-01T00:19:45.507Z,8.99
2022-10-01T00:22:15.540Z,8.92
2022-10-01T00:24:45.415Z,8.77
2022-10-01T00:27:15.385Z,8.63
2022-10-01T00:29:45.476Z,8.56
2022-10-01T00:32:18.042Z,8.66
2022-10-01T00:34:47.057Z,8.73
2022-10-01T00:37:19.730Z,8.69
2022-10-01T00:39:48.734Z,8.67
2022-10-01T00:42:19.465Z,8.56
2022-10-01T00:44:48.518Z,8.58
2022-10-01T00:47:27.220Z,8.63
2022-10-01T00:50:03.181Z,8.52
2022-10-01T00:52:43.615Z,8.53
2022-10-01T00:55:15.054Z,8.56
2022-10-01T00:57:46.138Z,8.61
2022-10-01T01:00:17.276Z,8.53
2022-10-01T01:02:48.374Z,8.66
2022-10-01T01:05:16.847Z,8.58
2022-10-01T01:07:52.924Z,8.69
2022-10-01T01:10:30.107Z,8.70
2022-10-01T01:13:12.713Z,8.68
2022-10-01T01:15:50.010Z,8.59
2022-10-01T01:18:23.387Z,8.63
2022-10-01T01:21:05.257Z,8.74
2022-10-01T01:23:49.930Z,8.64
2022-10-01T01:26:33.084Z,8.66
2022-10-01T01:29:08.031Z,8.65
2022-10-01T01:31:41.882Z,8.72
2022-10-01T01:34:13.740Z,8.66
2022-10-01T01:36:48.423Z,8.68
2022-10-01T01:39:21.048Z,8.77
2022-10-01T01:41:52.972Z,8.80
2022-10-01T01:44:29.896Z,8.87
2022-10-01T01:47:01.204Z,8.76
2022-10-01T01:49:30.719Z,8.69
2022-10-01T01:52:05.824Z,8.77
2022-10-01T01:54:36.109Z,8.74
2022-10-01T01:57:06.412Z,8.74
2022-10-01T01:59:38.368Z,8.96
2022-10-01T02:02:08.491Z,8.92
2022-10-01T02:04:43.044Z,8.91
2022-10-01T02:07:43.893Z,8.92
2022-10-01T02:10:28.026Z,9.10
2022-10-01T02:13:13.867Z,9.06
2022-10-01T02:15:58.338Z,9.40
2022-10-01T02:18:35.566Z,9.36
2022-10-01T02:21:13.525Z,9.43
2022-10-01T02:23:47.649Z,9.50
2022-10-01T02:26:21.218Z,9.44
2022-10-01T02:28:53.172Z,9.41
2022-10-01T02:31:25.698Z,9.49
2022-10-01T02:33:58.657Z,9.58
2022-10-01T02:36:31.406Z,9.75
2022-10-01T02:39:03.852Z,9.75
2022-10-01T02:41:37.244Z,9.84
2022-10-01T02:44:08.997Z,9.94
2022-10-01T02:46:53.379Z,9.90
2022-10-01T02:49:21.785Z,9.96
2022-10-01T02:52:01.378Z,9.96
2022-10-01T02:54:35.166Z,9.89
2022-10-01T02:57:20.893Z,9.74
2022-10-01T02:59:49.236Z,9.63
2022-10-01T03:02:24.042Z,9.64
2022-10-01T03:04:52.588Z,9.63
2022-10-01T03:07:20.792Z,9.53
2022-10-01T03:09:51.831Z,9.63
2022-10-01T03:12:20.584Z,9.59
2022-10-01T03:14:49.593Z,9.54
2022-10-01T03:17:20.186Z,9.62
2022-10-01T03:19:49.732Z,9.57
2022-10-01T03:22:22.818Z,9.51
2022-10-01T03:24:51.595Z,9.52
2022-10-01T03:27:20.657Z,9.50
2022-10-01T03:29:49.516Z,9.43
2022-10-01T03:32:23.989Z,9.43
2022-10-01T03:34:52.973Z,9.34
2022-10-01T03:37:21.398Z,9.28
2022-10-01T03:39:51.006Z,9.19
2022-10-01T03:42:19.435Z,9.20
2022-10-01T03:44:48.215Z,9.16
2022-10-01T03:47:17.703Z,9.18
2022-10-01T03:49:47.890Z,9.22
2022-10-01T03:52:17.548Z,9.03
2022-10-01T03:54:45.693Z,8.95
2022-10-01T03:57:14.186Z,9.00
2022-10-01T03:59:42.824Z,9.02
2022-10-01T04:02:11.297Z,9.10
2022-10-01T04:04:39.797Z,9.01
2022-10-01T04:07:09.610Z,9.09
2022-10-01T04:09:39.994Z,9.12
2022-10-01T04:12:08.505Z,9.07
2022-10-01T04:14:36.664Z,9.06
2022-10-01T04:17:05.077Z,9.04
2022-10-01T04:19:33.661Z,8.96
2022-10-01T04:22:02.613Z,8.97
2022-10-01T04:24:32.986Z,8.98
2022-10-01T04:27:01.095Z,8.93
2022-10-01T04:29:29.576Z,8.97
2022-10-01T04:31:58.460Z,9.01
2022-10-01T04:34:46.963Z,8.99
2022-10-01T04:37:15.119Z,8.96
2022-10-01T04:39:45.082Z,9.04
2022-10-01T04:42:13.928Z,8.94
2022-10-01T04:44:42.070Z,9.00
2022-10-01T04:47:10.434Z,8.94
2022-10-01T04:49:39.156Z,8.96
2022-10-01T04:52:07.627Z,8.92
2022-10-01T04:54:35.944Z,8.98
2022-10-01T04:57:05.850Z,9.02
2022-10-01T04:59:34.291Z,8.99
2022-10-01T05:02:02.825Z,9.03
2022-10-01T05:04:31.039Z,8.96
2022-10-01T05:06:59.517Z,8.98
2022-10-01T05:09:30.072Z,9.00
2022-10-01T05:11:58.568Z,8.90
2022-10-01T05:14:28.119Z,8.93
2022-10-01T05:16:56.525Z,8.93
2022-10-01T05:19:28.001Z,8.93
2022-10-01T05:21:56.398Z,8.94
2022-10-01T05:24:24.879Z,8.95
2022-10-01T05:26:54.278Z,9.01
2022-10-01T05:29:23.515Z,8.93
2022-10-01T05:31:53.732Z,8.95
2022-10-01T05:34:21.966Z,9.04
2022-10-01T05:36:50.525Z,8.98
2022-10-01T05:39:18.758Z,8.92
2022-10-01T05:41:47.266Z,8.90
2022-10-01T05:44:15.499Z,8.93
2022-10-01T05:46:48.106Z,8.95
2022-10-01T05:49:20.170Z,8.85
2022-10-01T05:51:49.272Z,8.92
2022-10-01T05:54:22.613Z,8.96
2022-10-01T05:56:52.458Z,9.00
2022-10-01T05:59:20.895Z,9.00
2022-10-01T06:01:49.231Z,9.14
2022-10-01T06:04:20.310Z,9.14
2022-10-01T06:06:48.448Z,9.15
2022-10-01T06:09:17.291Z,9.21
2022-10-01T06:11:47.116Z,9.23
2022-10-01T06:14:24.667Z,9.23
2022-10-01T06:16:55.156Z,9.24
2022-10-01T06:19:25.968Z,9.27
2022-10-01T06:21:54.392Z,9.28
2022-10-01T06:24:22.586Z,9.34
2022-10-01T06:26:51.149Z,9.38
2022-10-01T06:29:19.840Z,9.34
2022-10-01T06:31:53.979Z,9.36
2022-10-01T06:34:22.517Z,9.32
2022-10-01T06:36:52.708Z,9.40
2022-10-01T06:39:24.856Z,9.31
2022-10-01T06:41:53.508Z,9.30
2022-10-01T06:44:23.793Z,9.29
2022-10-01T06:46:54.197Z,9.31
2022-10-01T06:49:23.069Z,9.41
2022-10-01T06:52:10.795Z,9.43
2022-10-01T06:54:41.990Z,9.43
2022-10-01T06:57:10.341Z,9.45
2022-10-01T06:59:41.428Z,9.53
2022-10-01T07:02:21.806Z,9.53
2022-10-01T07:04:51.550Z,9.46
2022-10-01T07:07:21.860Z,9.51
2022-10-01T07:09:50.452Z,9.52
2022-10-01T07:12:45.084Z,9.58
2022-10-01T07:15:15.992Z,9.55
2022-10-01T07:17:46.254Z,9.54
2022-10-01T07:20:18.019Z,9.64
2022-10-01T07:22:50.120Z,9.55
2022-10-01T07:25:18.741Z,9.63
2022-10-01T07:27:47.187Z,9.65
2022-10-01T07:30:15.732Z,9.62
2022-10-01T07:32:48.895Z,9.75
2022-10-01T07:35:18.190Z,9.72
2022-10-01T07:37:52.478Z,9.75
2022-10-01T07:40:23.431Z,9.73
2022-10-01T07:42:57.691Z,9.73
2022-10-01T07:45:29.311Z,9.71
2022-10-01T07:47:59.689Z,9.72
2022-10-01T07:50:31.507Z,9.81
2022-10-01T07:53:02.966Z,9.81
2022-10-01T07:55:33.071Z,9.76
2022-10-01T07:58:02.730Z,9.82
2022-10-01T08:00:33.185Z,9.84
2022-10-01T08:03:02.087Z,9.81
2022-10-01T08:05:32.726Z,9.85
2022-10-01T08:08:07.849Z,9.89
2022-10-01T08:10:38.972Z,9.89
2022-10-01T08:13:15.002Z,9.87
2022-10-01T08:15:49.035Z,9.95
2022-10-01T08:18:17.540Z,10.08
2022-10-01T08:20:47.798Z,10.05
2022-10-01T08:23:21.015Z,10.06
2022-10-01T08:25:49.897Z,10.01
2022-10-01T08:28:18.936Z,10.06
2022-10-01T08:30:47.402Z,10.02
2022-10-01T08:33:16.311Z,9.95
2022-10-01T08:35:45.184Z,10.11
2022-10-01T08:38:16.033Z,10.22
2022-10-01T08:40:49.481Z,10.17
2022-10-01T08:43:31.947Z,10.20
2022-10-01T08:46:07.076Z,10.12
2022-10-01T08:48:57.079Z,10.20
2022-10-01T08:51:33.279Z,10.25
2022-10-01T08:54:10.501Z,10.21
2022-10-01T08:56:48.148Z,10.32
2022-10-01T08:59:30.424Z,10.30
2022-10-01T09:01:59.699Z,10.29
2022-10-01T09:04:30.616Z,10.37
2022-10-01T09:07:06.763Z,10.39
2022-10-01T09:09:47.214Z,10.42
2022-10-01T09:12:32.968Z,10.50
2022-10-01T09:15:17.316Z,10.57
2022-10-01T09:17:56.648Z,10.52
2022-10-01T09:20:30.287Z,10.60
2022-10-01T09:23:20.031Z,10.64
2022-10-01T09:25:55.011Z,10.66
2022-10-01T09:28:30.985Z,10.70
2022-10-01T09:31:05.543Z,10.73
2022-10-01T09:33:36.555Z,10.77
2022-10-01T09:36:21.184Z,10.85
2022-10-01T09:39:00.712Z,10.85
2022-10-01T09:41:32.078Z,10.86
2022-10-01T09:44:05.044Z,10.91
2022-10-01T09:46:34.816Z,10.88
2022-10-01T09:49:16.883Z,10.85
2022-10-01T09:51:49.780Z,10.84
2022-10-01T09:54:27.789Z,10.91
2022-10-01T09:57:02.489Z,10.85
2022-10-01T09:59:42.242Z,10.95
2022-10-01T10:02:20.117Z,10.87
2022-10-01T10:04:49.790Z,10.93
2022-10-01T10:07:23.046Z,11.02
2022-10-01T10:09:58.525Z,11.08
2022-10-01T10:12:32.080Z,11.29
2022-10-01T10:15:10.475Z,11.20
2022-10-01T10:17:44.996Z,11.22
2022-10-01T10:20:42.011Z,11.38
2022-10-01T10:23:19.537Z,11.43
2022-10-01T10:25:57.448Z,11.44
2022-10-01T10:28:28.383Z,11.56
2022-10-01T10:31:02.413Z,11.64
2022-10-01T10:33:37.480Z,11.67
2022-10-01T10:36:09.655Z,11.77
2022-10-01T10:38:45.729Z,11.89
2022-10-01T10:41:20.162Z,11.96
2022-10-01T10:43:53.044Z,11.94
2022-10-01T10:46:31.708Z,11.87
2022-10-01T10:49:09.338Z,12.01
2022-10-01T10:51:56.195Z,12.00
2022-10-01T10:54:29.655Z,11.93
2022-10-01T10:57:02.716Z,12.13
2022-10-01T10:59:36.233Z,12.08
2022-10-01T11:02:17.701Z,12.15
2022-10-01T11:04:49.472Z,12.25
2022-10-01T11:07:22.930Z,12.32
2022-10-01T11:10:07.704Z,12.31
2022-10-01T11:13:03.004Z,12.31
2022-10-01T11:15:47.273Z,12.46
2022-10-01T11:18:34.079Z,12.49
2022-10-01T11:21:22.131Z,12.44
2022-10-01T11:24:08.120Z,12.56
2022-10-01T11:26:53.535Z,12.59
2022-10-01T11:29:36.238Z,12.66
2022-10-01T11:32:24.605Z,12.76
2022-10-01T11:35:20.336Z,12.85
2022-10-01T11:38:26.770Z,12.90
2022-10-01T11:41:11.780Z,13.03
2022-10-01T11:43:44.745Z,13.01
2022-10-01T11:46:22.220Z,13.05
2022-10-01T11:48:58.124Z,13.11
2022-10-01T11:51:36.392Z,13.27
2022-10-01T11:54:17.324Z,13.36
2022-10-01T11:57:08.794Z,13.52
2022-10-01T11:59:51.092Z,13.60
2022-10-01T12:02:29.633Z,13.66
2022-10-01T12:05:07.271Z,13.75
2022-10-01T12:07:49.201Z,13.71
2022-10-01T12:10:31.825Z,13.77
2022-10-01T12:13:13.435Z,13.89
2022-10-01T12:15:49.597Z,13.94
2022-10-01T12:18:24.336Z,13.89
2022-10-01T12:20:55.437Z,13.93
2022-10-01T12:23:38.144Z,14.03
2022-10-01T12:26:16.130Z,14.33
2022-10-01T12:28:56.700Z,14.29
2022-10-01T12:31:39.720Z,14.39
2022-10-01T12:34:16.652Z,14.25
2022-10-01T12:36:57.395Z,14.31
2022-10-01T12:39:38.533Z,14.20
2022-10-01T12:42:30.393Z,14.15
2022-10-01T12:45:15.237Z,14.21
2022-10-01T12:47:55.099Z,14.17
2022-10-01T12:50:33.295Z,14.20
2022-10-01T12:53:23.592Z,14.30
2022-10-01T12:56:05.379Z,14.31
2022-10-01T12:58:55.742Z,14.48
2022-10-01T13:01:43.190Z,14.76
2022-10-01T13:04:35.855Z,14.72
2022-10-01T13:07:27.365Z,14.79
2022-10-01T13:10:13.425Z,14.96
2022-10-01T13:12:56.846Z,14.93
2022-10-01T13:15:33.097Z,14.97
2022-10-01T13:18:08.914Z,14.91
2022-10-01T13:20:44.482Z,14.76
2022-10-01T13:23:23.632Z,14.71
2022-10-01T13:26:05.918Z,15.05
2022-10-01T13:29:03.726Z,14.98
2022-10-01T13:31:42.531Z,15.59
2022-10-01T13:34:44.829Z,15.82
2022-10-01T13:37:18.762Z,16.07
2022-10-01T13:39:51.613Z,15.72
2022-10-01T13:42:32.913Z,15.79
2022-10-01T13:45:07.425Z,15.64
2022-10-01T13:47:43.556Z,15.33
2022-10-01T13:50:22.590Z,14.68
2022-10-01T13:52:51.720Z,13.63
2022-10-01T13:55:31.148Z,13.52
2022-10-01T13:58:07.100Z,13.28
2022-10-01T14:00:48.745Z,13.07
2022-10-01T14:03:34.665Z,13.02
2022-10-01T14:06:05.852Z,12.87
2022-10-01T14:08:43.185Z,13.11
2022-10-01T14:11:33.885Z,12.81
2022-10-01T14:14:34.620Z,12.95
2022-10-01T14:17:05.417Z,12.54
2022-10-01T14:19:37.244Z,12.28
2022-10-01T14:22:41.156Z,12.26
2022-10-01T14:25:32.466Z,11.99
2022-10-01T14:28:21.339Z,12.04
2022-10-01T14:30:57.339Z,12.32
2022-10-01T14:33:54.992Z,12.38
2022-10-01T14:36:29.841Z,12.48
2022-10-01T14:39:18.493Z,12.52
2022-10-01T14:41:48.795Z,12.64
2022-10-01T14:44:22.680Z,12.63
2022-10-01T14:46:51.725Z,12.79
2022-10-01T14:49:29.440Z,13.23
2022-10-01T14:52:05.454Z,14.16
2022-10-01T14:54:45.971Z,14.94
2022-10-01T14:57:20.565Z,15.28
2022-10-01T14:59:58.422Z,15.11
2022-10-01T15:02:30.440Z,15.40
2022-10-01T15:05:02.205Z,16.13
2022-10-01T15:07:41.879Z,16.31
2022-10-01T15:10:18.662Z,16.51
2022-10-01T15:12:56.233Z,16.82
2022-10-01T15:15:31.483Z,16.57
2022-10-01T15:18:01.598Z,16.53
2022-10-01T15:20:32.705Z,16.17
2022-10-01T15:23:08.402Z,15.72
2022-10-01T15:25:41.119Z,15.41
2022-10-01T15:28:20.204Z,14.99
2022-10-01T15:30:51.823Z,15.03
2022-10-01T15:33:29.168Z,14.82
2022-10-01T15:36:05.651Z,14.35
2022-10-01T15:38:38.593Z,14.24
2022-10-01T15:41:30.476Z,15.18
2022-10-01T15:44:00.693Z,16.27
2022-10-01T15:46:36.371Z,16.79
2022-10-01T15:49:20.225Z,16.59
2022-10-01T15:52:16.751Z,17.39
2022-10-01T15:54:47.754Z,18.36
2022-10-01T15:57:21.003Z,19.41
2022-10-01T15:59:52.037Z,20.23
2022-10-01T16:02:25.145Z,20.58
2022-10-01T16:04:57.428Z,20.65
2022-10-01T16:07:40.802Z,19.54
2022-10-01T16:10:35.954Z,20.47
2022-10-01T16:13:32.135Z,19.23
2022-10-01T16:16:23.112Z,19.03
2022-10-01T16:18:58.264Z,18.87
2022-10-01T16:21:27.844Z,19.24
2022-10-01T16:23:59.649Z,19.12
2022-10-01T16:26:39.335Z,18.55
2022-10-01T16:29:24.195Z,17.84
2022-10-01T16:31:54.051Z,16.92
2022-10-01T16:34:25.663Z,16.21
2022-10-01T16:36:54.874Z,15.62
2022-10-01T16:39:26.086Z,15.52
2022-10-01T16:42:19.021Z,15.39
2022-10-01T16:44:49.313Z,15.50
2022-10-01T16:47:28.301Z,15.43
2022-10-01T16:49:58.781Z,15.30
2022-10-01T16:52:32.039Z,15.08
2022-10-01T16:55:13.386Z,14.89
2022-10-01T16:57:45.625Z,14.81
2022-10-01T17:00:19.393Z,14.78
2022-10-01T17:02:49.500Z,14.22
2022-10-01T17:05:33.221Z,13.65
2022-10-01T17:08:05.188Z,13.12
2022-10-01T17:10:39.403Z,13.03
2022-10-01T17:13:12.069Z,13.11
2022-10-01T17:15:44.227Z,12.89
2022-10-01T17:18:15.748Z,12.90
2022-10-01T17:20:48.088Z,13.03
2022-10-01T17:23:21.175Z,13.08
2022-10-01T17:25:51.219Z,13.20
2022-10-01T17:28:24.969Z,13.07
2022-10-01T17:30:53.476Z,13.15
2022-10-01T17:33:23.966Z,12.96
2022-10-01T17:35:55.117Z,12.97
2022-10-01T17:38:24.852Z,13.11
2022-10-01T17:40:58.382Z,13.23
2022-10-01T17:43:31.487Z,13.35
2022-10-01T17:46:02.576Z,13.29
2022-10-01T17:48:33.367Z,13.18
2022-10-01T17:51:06.774Z,13.33
2022-10-01T17:53:41.373Z,13.20
2022-10-01T17:56:17.289Z,13.37
2022-10-01T17:58:50.399Z,13.39
2022-10-01T18:01:23.794Z,13.46
2022-10-01T18:04:03.083Z,13.36
2022-10-01T18:06:33.462Z,13.34
2022-10-01T18:09:04.856Z,13.25
2022-10-01T18:11:38.855Z,13.27
2022-10-01T18:14:08.658Z,13.11
2022-10-01T18:16:38.918Z,13.16
2022-10-01T18:19:52.275Z,13.04
2022-10-01T18:22:01.720Z,12.78
2022-10-01T18:24:31.221Z,12.84
2022-10-01T18:27:06.048Z,12.80
2022-10-01T18:29:35.641Z,12.76
2022-10-01T18:32:16.042Z,12.75
2022-10-01T18:34:49.288Z,12.64
2022-10-01T18:37:28.464Z,12.60
2022-10-01T18:40:01.627Z,12.18
2022-10-01T18:42:48.366Z,11.97
2022-10-01T18:45:19.814Z,12.03
2022-10-01T18:48:04.041Z,11.86
2022-10-01T18:50:47.180Z,12.00
2022-10-01T18:53:53.281Z,12.09
2022-10-01T18:56:31.320Z,12.17
2022-10-01T19:02:36.736Z,12.13
2022-10-01T19:05:37.896Z,12.13
2022-10-01T19:08:18.167Z,12.17
2022-10-01T19:10:55.778Z,11.85
2022-10-01T19:13:33.116Z,11.98
2022-10-01T19:16:16.728Z,11.81
2022-10-01T19:19:04.660Z,11.81
2022-10-01T19:21:41.359Z,11.80
2022-10-01T19:24:42.566Z,11.81
2022-10-01T19:27:27.135Z,11.82
2022-10-01T19:30:06.864Z,11.82
2022-10-01T19:32:46.226Z,11.95
2022-10-01T19:35:28.526Z,11.90
2022-10-01T19:38:04.666Z,11.91
2022-10-01T19:40:37.084Z,11.82
2022-10-01T19:43:14.047Z,11.85
2022-10-01T19:45:50.069Z,11.56
2022-10-01T19:48:25.595Z,11.63
2022-10-01T19:51:00.459Z,11.64
2022-10-01T19:53:38.332Z,11.57
2022-10-01T19:56:17.499Z,11.63
2022-10-01T19:58:52.426Z,11.57
2022-10-01T20:01:25.411Z,11.62
2022-10-01T20:04:05.081Z,11.63
2022-10-01T20:06:39.666Z,11.58
2022-10-01T20:09:18.676Z,11.27
2022-10-01T20:11:59.326Z,11.33
2022-10-01T20:15:02.685Z,11.28
2022-10-01T20:17:39.867Z,11.32
2022-10-01T20:20:19.716Z,11.32
2022-10-01T20:23:03.828Z,11.20
2022-10-01T20:25:41.107Z,11.14
2022-10-01T20:28:20.694Z,11.16
2022-10-01T20:30:59.391Z,11.10
2022-10-01T20:33:44.313Z,11.03
2022-10-01T20:36:20.578Z,10.89
2022-10-01T20:39:04.129Z,10.91
2022-10-01T20:41:44.614Z,10.81
2022-10-01T20:44:18.814Z,10.81
2022-10-01T20:46:53.287Z,10.80
2022-10-01T20:49:29.874Z,10.68
2022-10-01T20:52:04.197Z,10.64
2022-10-01T20:54:41.673Z,10.64
2022-10-01T20:57:17.777Z,10.59
2022-10-01T20:59:52.802Z,10.78
2022-10-01T21:02:32.733Z,10.79
2022-10-01T21:05:11.728Z,10.69
2022-10-01T21:07:46.420Z,10.59
2022-10-01T21:10:28.354Z,10.50
2022-10-01T21:13:03.465Z,10.60
2022-10-01T21:15:45.296Z,10.39
2022-10-01T21:18:22.452Z,10.44
2022-10-01T21:20:57.913Z,10.38
2022-10-01T21:23:42.524Z,10.32
2022-10-01T21:26:27.211Z,10.24
2022-10-01T21:29:21.425Z,10.29
2022-10-01T21:32:05.152Z,10.13
2022-10-01T21:34:48.823Z,10.13
2022-10-01T21:37:31.846Z,10.14
2022-10-01T21:40:16.632Z,10.24
2022-10-01T21:42:59.002Z,10.29
2022-10-01T21:45:39.686Z,10.23
2022-10-01T21:48:21.359Z,10.29
2022-10-01T21:50:57.616Z,10.23
2022-10-01T21:54:03.984Z,10.20
2022-10-01T21:56:56.973Z,9.99
2022-10-01T21:59:45.843Z,9.98
2022-10-01T22:02:30.534Z,9.84
2022-10-01T22:05:10.248Z,9.83
2022-10-01T22:07:49.067Z,9.69
2022-10-01T22:10:25.485Z,9.68
2022-10-01T22:13:02.450Z,9.68
2022-10-01T22:15:40.114Z,9.75
2022-10-01T22:18:14.039Z,9.82
2022-10-01T22:20:48.284Z,10.03
2022-10-01T22:23:23.585Z,10.07
2022-10-01T22:26:00.908Z,9.76
2022-10-01T22:28:37.497Z,9.83
2022-10-01T22:31:16.890Z,9.75
2022-10-01T22:33:50.328Z,9.75
2022-10-01T22:36:28.945Z,9.85
2022-10-01T22:39:01.824Z,9.72
2022-10-01T22:41:40.081Z,9.81
2022-10-01T22:44:14.838Z,9.88
2022-10-01T22:47:21.136Z,9.93
2022-10-01T22:50:28.792Z,10.12
2022-10-01T22:53:12.961Z,10.09
2022-10-01T22:55:53.070Z,10.10
2022-10-01T22:58:39.773Z,9.99
2022-10-01T23:01:17.911Z,9.78
2022-10-01T23:04:07.683Z,9.70
2022-10-01T23:06:43.054Z,9.58
2022-10-01T23:09:16.805Z,9.45
2022-10-01T23:11:59.381Z,9.15
2022-10-01T23:14:45.473Z,9.07
2022-10-01T23:17:23.722Z,9.20
2022-10-01T23:20:05.793Z,9.12
2022-10-01T23:23:10.193Z,9.19
2022-10-01T23:25:53.317Z,9.62
2022-10-01T23:28:33.151Z,9.61
2022-10-01T23:31:09.161Z,9.82
2022-10-01T23:34:07.251Z,9.61
2022-10-01T23:36:49.260Z,9.56
2022-10-01T23:39:49.282Z,9.75
2022-10-01T23:42:38.434Z,9.74
2022-10-01T23:45:19.469Z,9.77
2022-10-01T23:47:54.570Z,9.82
2022-10-01T23:50:27.711Z,9.78
2022-10-01T23:53:16.501Z,9.60
2022-10-01T23:56:08.463Z,9.70
2022-10-01T23:58:44.343Z,9.58
